Time;durP1;ratioP1;P1;durP2;ratioP2;P2;SDS_P1;SDS_P2;PMS_P1;PMS_P2;Temp;Humidity;BMP_temperature;BMP_pressure;BME280_temperature;BME280_humidity;BME280_pressure;Samples;Min_cycle;Max_cycle;Signal;HPM_P1;HPM_P2
2024/02/19 00:01:32;;;;;;;13.83;10.40;;;8.00;99.90;;;;;;493995;241;27689;-73
2024/02/19 00:03:33;;;;;;;10.60;9.50;;;8.00;99.90;;;;;;493965;241;28055;-73
2024/02/19 00:05:34;;;;;;;11.10;9.43;;;8.00;99.90;;;;;;494004;241;28066;-74
2024/02/19 00:07:35;;;;;;;12.60;10.07;;;8.00;99.90;;;;;;493890;241;27815;-74
2024/02/19 00:09:37;;;;;;;12.43;10.70;;;8.00;99.90;;;;;;494030;241;27791;-73
2024/02/19 00:11:38;;;;;;;13.77;10.77;;;8.00;99.90;;;;;;494024;241;27874;-74
2024/02/19 00:13:39;;;;;;;16.37;12.93;;;8.00;99.90;;;;;;493978;238;28006;-74
2024/02/19 00:15:40;;;;;;;14.27;11.50;;;8.00;99.90;;;;;;493955;241;27983;-74
2024/02/19 00:17:42;;;;;;;15.10;11.23;;;8.00;99.90;;;;;;493808;241;28570;-74
2024/02/19 00:19:43;;;;;;;15.10;10.90;;;8.00;99.90;;;;;;493918;241;28395;-74
2024/02/19 00:21:44;;;;;;;14.57;11.20;;;8.10;99.90;;;;;;494007;241;28494;-75
2024/02/19 00:23:45;;;;;;;14.00;11.50;;;8.10;99.90;;;;;;493987;241;27597;-74
2024/02/19 00:25:47;;;;;;;16.43;12.70;;;8.00;99.90;;;;;;493966;241;28041;-74
2024/02/19 00:27:49;;;;;;;16.27;11.90;;;8.10;99.90;;;;;;493995;241;27870;-75
2024/02/19 00:29:49;;;;;;;13.47;11.20;;;8.10;99.90;;;;;;493971;241;27820;-74
2024/02/19 00:31:51;;;;;;;13.47;11.40;;;8.10;99.90;;;;;;493996;241;27981;-74
2024/02/19 00:33:53;;;;;;;13.50;10.07;;;8.10;99.90;;;;;;493936;241;28015;-74
2024/02/19 00:35:53;;;;;;;14.50;11.40;;;8.10;99.90;;;;;;493963;241;28531;-75
2024/02/19 00:37:54;;;;;;;14.20;10.70;;;8.10;99.90;;;;;;493974;237;28563;-75
2024/02/19 00:39:57;;;;;;;13.60;11.07;;;8.10;99.90;;;;;;493965;241;28487;-74
2024/02/19 00:41:57;;;;;;;14.13;11.20;;;8.10;99.90;;;;;;493911;237;27858;-74
2024/02/19 00:43:58;;;;;;;19.43;11.60;;;8.10;99.90;;;;;;493945;241;27966;-74
2024/02/19 00:46:00;;;;;;;18.73;12.17;;;8.10;99.90;;;;;;494003;241;27830;-74
2024/02/19 00:48:01;;;;;;;17.50;13.40;;;8.10;99.90;;;;;;493963;241;27886;-74
2024/02/19 00:50:02;;;;;;;13.77;11.47;;;8.20;99.90;;;;;;493964;241;27943;-74
2024/02/19 00:52:03;;;;;;;17.67;12.07;;;8.20;99.90;;;;;;493962;241;27968;-74
2024/02/19 00:54:04;;;;;;;14.93;12.27;;;8.20;99.90;;;;;;493987;241;28490;-75
2024/02/19 00:56:06;;;;;;;15.17;11.27;;;8.10;99.90;;;;;;493946;241;28281;-74
2024/02/19 00:58:07;;;;;;;12.67;10.50;;;8.10;99.90;;;;;;493704;241;28379;-74
2024/02/19 01:00:08;;;;;;;14.03;10.73;;;8.10;99.90;;;;;;493957;241;28024;-74
2024/02/19 01:02:09;;;;;;;13.70;11.13;;;8.10;99.90;;;;;;493958;241;27977;-75
2024/02/19 01:04:11;;;;;;;14.77;10.87;;;8.10;99.90;;;;;;494012;241;28110;-75
2024/02/19 01:06:12;;;;;;;15.90;11.63;;;8.20;99.90;;;;;;493978;241;28080;-73
2024/02/19 01:08:13;;;;;;;13.23;10.80;;;8.20;99.90;;;;;;493927;241;27976;-74
2024/02/19 01:10:14;;;;;;;14.13;11.17;;;8.20;99.90;;;;;;493947;237;28145;-73
2024/02/19 01:12:16;;;;;;;12.30;10.47;;;8.20;99.90;;;;;;494017;241;28440;-73
2024/02/19 01:14:17;;;;;;;12.43;11.00;;;8.20;99.90;;;;;;494005;241;28551;-74
2024/02/19 01:16:18;;;;;;;15.43;12.07;;;8.30;99.90;;;;;;493932;241;28518;-73
2024/02/19 01:18:20;;;;;;;14.70;11.73;;;8.20;99.90;;;;;;493905;241;27574;-74
2024/02/19 01:20:21;;;;;;;13.17;10.67;;;8.20;99.90;;;;;;493934;241;28010;-73
2024/02/19 01:22:22;;;;;;;14.97;11.57;;;8.20;99.90;;;;;;493808;241;27880;-73
2024/02/19 01:24:24;;;;;;;13.37;11.27;;;8.30;99.90;;;;;;493939;241;27700;-74
2024/02/19 01:26:24;;;;;;;14.70;10.43;;;8.30;99.90;;;;;;493907;241;28089;-73
2024/02/19 01:28:26;;;;;;;15.10;12.23;;;8.30;99.90;;;;;;493939;241;27624;-73
2024/02/19 01:30:27;;;;;;;17.50;12.20;;;8.30;99.90;;;;;;494011;241;28101;-74
2024/02/19 01:32:28;;;;;;;13.03;10.80;;;8.30;99.90;;;;;;493996;241;28049;-74
2024/02/19 01:34:29;;;;;;;16.13;11.17;;;8.30;99.90;;;;;;493952;241;28585;-74
2024/02/19 01:36:31;;;;;;;11.27;9.93;;;8.30;99.90;;;;;;493950;241;27857;-73
2024/02/19 01:38:32;;;;;;;14.07;11.00;;;8.30;99.90;;;;;;494014;241;28050;-74
2024/02/19 01:40:33;;;;;;;14.30;11.63;;;8.30;99.90;;;;;;494011;241;27614;-75
2024/02/19 01:42:34;;;;;;;13.97;10.90;;;8.30;99.90;;;;;;494004;241;27842;-73
2024/02/19 01:44:39;;;;;;;11.30;10.13;;;8.30;99.90;;;;;;493980;239;27623;-74
2024/02/19 01:46:37;;;;;;;13.10;9.97;;;8.30;99.90;;;;;;493787;241;28132;-73
2024/02/19 01:48:38;;;;;;;15.77;11.17;;;8.30;99.90;;;;;;494015;241;27931;-73
2024/02/19 01:50:39;;;;;;;15.43;10.53;;;8.30;99.90;;;;;;493981;241;28323;-74
2024/02/19 01:52:41;;;;;;;16.47;10.20;;;8.30;99.90;;;;;;493979;241;28368;-73
2024/02/19 01:54:42;;;;;;;14.43;9.27;;;8.30;99.90;;;;;;493970;241;28055;-74
2024/02/19 01:56:43;;;;;;;11.93;9.40;;;8.30;99.90;;;;;;493966;241;27980;-76
2024/02/19 01:58:44;;;;;;;11.63;10.10;;;8.30;99.90;;;;;;493938;241;27830;-73
2024/02/19 02:00:46;;;;;;;10.27;8.20;;;8.30;99.90;;;;;;493988;241;28013;-73
2024/02/19 02:02:47;;;;;;;10.30;7.50;;;8.30;99.90;;;;;;493974;241;27710;-74
2024/02/19 02:04:48;;;;;;;10.63;7.53;;;8.30;99.90;;;;;;493975;241;27999;-73
2024/02/19 02:06:50;;;;;;;12.13;8.53;;;8.30;99.90;;;;;;493988;237;27840;-76
2024/02/19 02:08:51;;;;;;;9.53;8.10;;;8.20;99.90;;;;;;493972;241;27999;-73
2024/02/19 02:10:52;;;;;;;9.73;7.57;;;8.20;99.90;;;;;;493943;241;27996;-74
2024/02/19 02:12:53;;;;;;;13.10;8.20;;;8.20;99.90;;;;;;493941;237;28063;-74
2024/02/19 02:14:55;;;;;;;7.80;6.60;;;8.10;99.90;;;;;;493986;241;27952;-74
2024/02/19 02:16:56;;;;;;;8.70;6.73;;;8.10;99.90;;;;;;493957;241;27980;-74
2024/02/19 02:18:57;;;;;;;11.20;7.87;;;8.00;99.90;;;;;;493954;241;28008;-73
2024/02/19 02:20:58;;;;;;;10.13;7.60;;;8.00;99.90;;;;;;493948;241;28469;-73
2024/02/19 02:23:00;;;;;;;8.53;7.53;;;8.10;99.90;;;;;;493977;237;28644;-76
2024/02/19 02:25:01;;;;;;;10.53;7.50;;;8.10;99.90;;;;;;493975;241;28343;-73
2024/02/19 02:27:02;;;;;;;10.60;7.00;;;8.00;99.90;;;;;;493918;241;28094;-74
2024/02/19 02:29:03;;;;;;;8.53;6.30;;;8.00;99.90;;;;;;493973;241;27811;-73
2024/02/19 02:31:05;;;;;;;8.17;7.10;;;8.00;99.90;;;;;;493963;241;27845;-74
2024/02/19 02:33:06;;;;;;;7.80;6.53;;;7.90;99.90;;;;;;493965;241;28092;-74
2024/02/19 02:35:07;;;;;;;10.50;6.90;;;7.90;99.90;;;;;;493930;241;27953;-73
2024/02/19 02:37:08;;;;;;;8.97;6.10;;;7.80;99.90;;;;;;493917;241;28099;-74
2024/02/19 02:39:10;;;;;;;9.17;6.57;;;7.80;99.90;;;;;;493947;241;27840;-74
2024/02/19 02:41:11;;;;;;;11.60;7.13;;;7.80;99.90;;;;;;493954;241;28088;-73
2024/02/19 02:43:12;;;;;;;10.23;7.50;;;7.70;99.90;;;;;;493982;241;28113;-74
2024/02/19 02:45:13;;;;;;;8.97;7.40;;;7.70;99.90;;;;;;493975;241;27834;-73
2024/02/19 02:47:15;;;;;;;8.87;6.63;;;7.70;99.90;;;;;;493887;241;28117;-74
2024/02/19 02:49:16;;;;;;;8.73;6.10;;;7.60;99.90;;;;;;493927;241;27815;-73
2024/02/19 02:51:17;;;;;;;8.40;5.97;;;7.60;99.90;;;;;;493990;241;28545;-73
2024/02/19 02:53:21;;;;;;;12.20;6.13;;;7.60;99.90;;;;;;493969;241;28461;-73
2024/02/19 02:55:20;;;;;;;10.60;5.60;;;7.50;99.90;;;;;;493855;241;28268;-73
2024/02/19 02:57:21;;;;;;;14.40;5.57;;;7.50;99.90;;;;;;493875;241;28337;-74
2024/02/19 02:59:22;;;;;;;7.60;5.20;;;7.50;99.90;;;;;;493974;237;28019;-73
2024/02/19 03:01:23;;;;;;;6.70;5.43;;;7.50;99.90;;;;;;493978;241;27845;-73
2024/02/19 03:03:25;;;;;;;6.50;4.50;;;7.50;99.90;;;;;;493962;241;27974;-74
2024/02/19 03:05:26;;;;;;;7.63;3.83;;;7.50;99.90;;;;;;493942;241;27951;-74
2024/02/19 03:07:27;;;;;;;5.80;4.63;;;7.50;99.90;;;;;;493912;241;28047;-73
2024/02/19 03:09:29;;;;;;;6.70;4.80;;;7.50;99.90;;;;;;493995;241;27886;-74
2024/02/19 03:11:30;;;;;;;8.70;5.13;;;7.60;99.90;;;;;;493973;241;27928;-73
2024/02/19 03:13:31;;;;;;;8.50;5.10;;;7.60;99.90;;;;;;493965;241;27744;-74
2024/02/19 03:15:32;;;;;;;11.47;5.47;;;7.60;99.90;;;;;;493909;241;28017;-73
2024/02/19 03:17:33;;;;;;;8.67;4.93;;;7.60;99.90;;;;;;493940;241;28054;-73
2024/02/19 03:19:35;;;;;;;7.80;5.03;;;7.60;99.90;;;;;;494034;241;28108;-75
2024/02/19 03:21:45;;;;;;;10.90;4.60;;;7.60;99.90;;;;;;493844;241;27806;-73
2024/02/19 03:23:38;;;;;;;8.60;4.07;;;7.70;99.90;;;;;;493453;241;28555;-74
2024/02/19 03:25:38;;;;;;;11.80;4.40;;;7.60;99.90;;;;;;493971;241;28832;-73
2024/02/19 03:27:40;;;;;;;10.93;4.90;;;7.60;99.90;;;;;;493968;241;28390;-72
2024/02/19 03:29:41;;;;;;;5.73;3.50;;;7.60;99.90;;;;;;493991;241;28453;-73
2024/02/19 03:31:42;;;;;;;8.43;3.60;;;7.60;99.90;;;;;;493929;241;28188;-74
2024/02/19 03:33:43;;;;;;;10.63;3.30;;;7.60;99.90;;;;;;493943;241;27597;-74
2024/02/19 03:35:45;;;;;;;8.50;3.53;;;7.60;99.90;;;;;;493949;241;27849;-73
2024/02/19 03:37:46;;;;;;;6.90;3.00;;;7.60;99.90;;;;;;493909;241;28178;-73
2024/02/19 03:39:47;;;;;;;5.27;3.30;;;7.60;99.90;;;;;;493983;241;27912;-74
2024/02/19 03:41:49;;;;;;;8.80;3.30;;;7.60;99.90;;;;;;493941;241;28165;-73
2024/02/19 03:43:50;;;;;;;6.13;3.50;;;7.60;99.90;;;;;;493914;241;27960;-73
2024/02/19 03:45:51;;;;;;;10.33;3.60;;;7.50;99.90;;;;;;494009;241;28693;-75
2024/02/19 03:47:52;;;;;;;9.00;3.33;;;7.50;99.90;;;;;;493984;241;27947;-73
2024/02/19 03:49:53;;;;;;;8.40;4.10;;;7.50;99.90;;;;;;494017;241;27892;-74
2024/02/19 03:51:55;;;;;;;11.90;3.50;;;7.50;99.90;;;;;;493943;241;28027;-74
2024/02/19 03:53:56;;;;;;;14.53;3.00;;;7.50;99.90;;;;;;493688;241;27610;-74
2024/02/19 03:55:58;;;;;;;9.40;3.77;;;7.50;99.90;;;;;;494000;241;28453;-74
2024/02/19 03:57:59;;;;;;;7.50;2.80;;;7.40;99.90;;;;;;493889;241;28786;-74
2024/02/19 04:00:00;;;;;;;8.53;3.17;;;7.40;99.90;;;;;;493951;237;28593;-74
2024/02/19 04:02:01;;;;;;;7.00;3.13;;;7.40;99.90;;;;;;493957;241;30342;-73
2024/02/19 04:04:02;;;;;;;8.10;3.53;;;7.40;99.90;;;;;;494013;241;28419;-73
2024/02/19 04:06:03;;;;;;;4.77;2.60;;;7.40;99.90;;;;;;493998;241;27837;-74
2024/02/19 04:08:05;;;;;;;4.63;2.57;;;7.40;99.90;;;;;;493937;241;27970;-73
2024/02/19 04:10:06;;;;;;;8.70;3.50;;;7.40;99.90;;;;;;493865;241;27857;-74
2024/02/19 04:12:07;;;;;;;5.83;2.60;;;7.40;99.90;;;;;;493993;241;27762;-74
2024/02/19 04:14:08;;;;;;;5.90;2.30;;;7.40;99.90;;;;;;494022;241;28876;-73
2024/02/19 04:16:10;;;;;;;10.60;3.10;;;7.40;99.90;;;;;;493987;241;28419;-74
2024/02/19 04:18:11;;;;;;;5.83;2.40;;;7.40;99.90;;;;;;493934;241;28101;-73
2024/02/19 04:20:12;;;;;;;3.57;2.37;;;7.40;99.90;;;;;;493948;241;27991;-74
2024/02/19 04:22:13;;;;;;;5.17;2.40;;;7.40;99.90;;;;;;493993;241;28207;-75
2024/02/19 04:24:15;;;;;;;6.00;2.50;;;7.30;99.90;;;;;;493966;241;28055;-74
2024/02/19 04:26:16;;;;;;;5.50;2.20;;;7.30;99.90;;;;;;493978;241;28490;-74
2024/02/19 04:28:17;;;;;;;7.20;2.13;;;7.30;99.90;;;;;;493935;241;28215;-73
2024/02/19 04:30:18;;;;;;;4.10;2.00;;;7.30;99.90;;;;;;493972;241;28354;-74
2024/02/19 04:32:20;;;;;;;5.07;2.03;;;7.30;99.90;;;;;;494032;241;28488;-74
2024/02/19 04:34:21;;;;;;;2.27;1.93;;;7.30;99.90;;;;;;493975;241;28356;-73
2024/02/19 04:36:22;;;;;;;6.10;1.90;;;7.30;99.90;;;;;;493926;241;28361;-73
2024/02/19 04:38:23;;;;;;;4.53;2.10;;;7.30;99.90;;;;;;493958;241;27980;-73
2024/02/19 04:40:25;;;;;;;3.70;2.00;;;7.30;99.90;;;;;;494019;241;27913;-73
2024/02/19 04:42:26;;;;;;;3.80;2.40;;;7.30;99.90;;;;;;493966;241;27900;-74
2024/02/19 04:44:27;;;;;;;10.03;2.13;;;7.30;99.90;;;;;;493956;241;27838;-72
2024/02/19 04:46:28;;;;;;;7.63;2.37;;;7.30;99.90;;;;;;493872;241;28038;-73
2024/02/19 04:48:30;;;;;;;3.10;1.80;;;7.30;99.90;;;;;;493983;241;28429;-74
2024/02/19 04:50:31;;;;;;;7.32;1.92;;;7.20;99.90;;;;;;494008;241;27856;-73
2024/02/19 04:52:32;;;;;;;1.93;1.80;;;7.20;99.90;;;;;;493957;241;27631;-74
2024/02/19 04:54:33;;;;;;;3.13;1.63;;;7.20;99.90;;;;;;493962;241;27912;-73
2024/02/19 04:56:35;;;;;;;5.23;2.47;;;7.20;99.90;;;;;;493874;241;28085;-73
2024/02/19 04:58:36;;;;;;;2.23;1.80;;;7.20;99.90;;;;;;494003;241;27997;-74
2024/02/19 05:00:40;;;;;;;2.70;2.17;;;7.20;99.90;;;;;;493972;241;28039;-75
2024/02/19 05:02:41;;;;;;;3.50;1.90;;;7.20;99.90;;;;;;493976;241;27756;-73
2024/02/19 05:04:42;;;;;;;2.83;1.50;;;7.20;99.90;;;;;;493950;241;27990;-74
2024/02/19 05:06:44;;;;;;;6.27;1.97;;;7.20;99.90;;;;;;493896;241;27786;-73
2024/02/19 05:08:45;;;;;;;8.60;2.60;;;7.20;99.90;;;;;;494039;241;27813;-74
2024/02/19 05:10:46;;;;;;;3.13;2.13;;;7.20;99.90;;;;;;493976;241;28065;-74
2024/02/19 05:12:47;;;;;;;6.00;2.10;;;7.20;99.90;;;;;;493985;241;27616;-73
2024/02/19 05:14:49;;;;;;;6.40;2.40;;;7.20;99.90;;;;;;493918;241;28867;-73
2024/02/19 05:16:50;;;;;;;2.43;2.20;;;7.20;99.90;;;;;;493938;241;28474;-75
2024/02/19 05:18:51;;;;;;;3.80;2.00;;;7.20;99.90;;;;;;494018;241;28005;-74
2024/02/19 05:20:52;;;;;;;3.60;1.97;;;7.10;99.90;;;;;;493904;241;28433;-74
2024/02/19 05:22:54;;;;;;;5.87;1.77;;;7.10;99.90;;;;;;493950;237;28754;-73
2024/02/19 05:24:55;;;;;;;4.15;2.20;;;7.10;99.90;;;;;;493974;241;28551;-73
2024/02/19 05:26:56;;;;;;;8.43;2.03;;;7.10;99.90;;;;;;493952;241;27504;-73
2024/02/19 05:28:57;;;;;;;4.27;1.90;;;7.10;99.90;;;;;;493948;241;27754;-73
2024/02/19 05:30:59;;;;;;;4.23;1.70;;;7.10;99.90;;;;;;493951;241;28131;-74
2024/02/19 05:33:01;;;;;;;4.33;1.80;;;7.10;99.90;;;;;;493953;241;27792;-73
2024/02/19 05:35:02;;;;;;;2.10;1.63;;;7.10;99.90;;;;;;493992;241;28202;-74
2024/02/19 05:37:02;;;;;;;5.97;1.90;;;7.20;99.90;;;;;;493888;241;28003;-74
2024/02/19 05:39:04;;;;;;;7.87;2.50;;;7.10;99.90;;;;;;493971;241;28615;-73
2024/02/19 05:41:05;;;;;;;3.27;2.13;;;7.10;99.90;;;;;;493967;241;28872;-73
2024/02/19 05:43:06;;;;;;;2.73;1.73;;;7.10;99.90;;;;;;493940;241;28824;-73
2024/02/19 05:45:07;;;;;;;3.90;2.03;;;7.10;99.90;;;;;;493981;241;27944;-73
2024/02/19 05:47:09;;;;;;;5.70;1.93;;;7.20;99.90;;;;;;493894;241;28609;-71
2024/02/19 05:49:10;;;;;;;4.43;1.87;;;7.10;99.90;;;;;;493948;241;28045;-73
2024/02/19 05:51:11;;;;;;;2.50;1.93;;;7.10;99.90;;;;;;493966;241;28483;-73
2024/02/19 05:53:13;;;;;;;5.80;1.83;;;7.10;99.90;;;;;;493979;241;28489;-75
2024/02/19 05:55:14;;;;;;;5.50;1.90;;;7.10;99.90;;;;;;493938;241;28735;-73
2024/02/19 05:57:15;;;;;;;3.57;1.73;;;7.10;99.90;;;;;;493883;241;28187;-74
2024/02/19 05:59:16;;;;;;;3.93;1.57;;;7.00;99.90;;;;;;493944;241;28033;-73
2024/02/19 06:01:18;;;;;;;6.97;2.00;;;7.00;99.90;;;;;;493975;241;27944;-73
2024/02/19 06:03:19;;;;;;;3.33;1.77;;;7.00;99.90;;;;;;493969;241;27584;-75
2024/02/19 06:05:20;;;;;;;3.53;1.50;;;6.90;99.90;;;;;;493999;241;27830;-74
2024/02/19 06:07:21;;;;;;;5.57;2.20;;;6.90;99.90;;;;;;493888;241;28869;-74
2024/02/19 06:09:23;;;;;;;3.67;2.12;;;6.90;99.90;;;;;;493964;241;27925;-74
2024/02/19 06:11:25;;;;;;;5.90;2.37;;;6.90;99.90;;;;;;493993;241;27577;-73
2024/02/19 06:13:25;;;;;;;8.13;2.00;;;6.80;99.90;;;;;;493953;241;27974;-71
2024/02/19 06:15:27;;;;;;;5.30;2.07;;;6.80;99.90;;;;;;493965;241;28908;-72
2024/02/19 06:17:27;;;;;;;4.20;2.20;;;6.80;99.90;;;;;;493841;241;28411;-74
2024/02/19 06:19:29;;;;;;;3.47;1.90;;;6.80;99.90;;;;;;493950;241;30050;-74
2024/02/19 06:21:30;;;;;;;2.70;1.75;;;6.70;99.90;;;;;;494008;241;28013;-73
2024/02/19 06:23:31;;;;;;;4.78;1.90;;;6.70;99.90;;;;;;493982;241;27522;-72
2024/02/19 06:25:33;;;;;;;5.45;1.87;;;6.70;99.90;;;;;;493973;241;27471;-71
2024/02/19 06:27:34;;;;;;;7.00;2.12;;;6.80;99.90;;;;;;493868;241;27501;-73
2024/02/19 06:29:35;;;;;;;4.37;1.77;;;6.80;99.90;;;;;;494011;241;27535;-76
2024/02/19 06:31:37;;;;;;;4.43;2.17;;;6.80;99.90;;;;;;493961;241;28890;-74
2024/02/19 06:33:38;;;;;;;2.80;1.80;;;6.80;99.90;;;;;;493957;241;28480;-71
2024/02/19 06:35:40;;;;;;;3.25;1.60;;;6.70;99.90;;;;;;493931;241;29321;-73
2024/02/19 06:37:40;;;;;;;3.25;2.28;;;6.80;99.90;;;;;;493881;241;27969;-74
2024/02/19 06:39:41;;;;;;;4.77;2.37;;;6.70;99.90;;;;;;493985;241;27630;-73
2024/02/19 06:41:44;;;;;;;5.50;2.00;;;6.70;99.90;;;;;;493988;241;27953;-71
2024/02/19 06:43:44;;;;;;;3.95;2.15;;;6.70;99.90;;;;;;493681;241;27865;-75
2024/02/19 06:45:45;;;;;;;8.63;2.37;;;6.70;99.90;;;;;;493824;241;27481;-71
2024/02/19 06:47:46;;;;;;;4.10;1.80;;;6.70;99.90;;;;;;493902;241;28080;-74
2024/02/19 06:49:48;;;;;;;5.43;2.03;;;6.80;99.90;;;;;;493967;241;28191;-71
2024/02/19 06:51:49;;;;;;;4.15;2.40;;;6.80;99.90;;;;;;493992;241;28285;-74
2024/02/19 06:53:50;;;;;;;3.53;1.80;;;6.80;99.90;;;;;;493959;241;27958;-74
2024/02/19 06:55:51;;;;;;;4.27;2.27;;;6.80;99.90;;;;;;493995;241;29494;-74
2024/02/19 06:57:53;;;;;;;6.20;2.23;;;6.80;99.90;;;;;;493918;241;28494;-74
2024/02/19 06:59:54;;;;;;;4.72;2.10;;;6.90;99.90;;;;;;494027;241;28065;-72
2024/02/19 07:01:55;;;;;;;3.47;1.97;;;6.90;99.90;;;;;;493975;241;27587;-74
2024/02/19 07:03:56;;;;;;;7.13;2.27;;;6.90;99.90;;;;;;493987;241;27917;-74
2024/02/19 07:05:58;;;;;;;5.10;2.13;;;6.90;99.90;;;;;;494046;241;28087;-73
2024/02/19 07:07:59;;;;;;;4.80;2.30;;;6.90;99.90;;;;;;493970;241;28613;-73
2024/02/19 07:10:00;;;;;;;8.83;2.67;;;6.90;99.90;;;;;;494000;241;28201;-74
2024/02/19 07:12:01;;;;;;;11.27;2.30;;;7.00;99.90;;;;;;493972;241;27858;-73
2024/02/19 07:14:03;;;;;;;3.93;2.60;;;7.00;99.90;;;;;;494013;241;28088;-74
2024/02/19 07:16:04;;;;;;;7.10;2.60;;;7.00;99.90;;;;;;494009;241;28067;-75
2024/02/19 07:18:05;;;;;;;5.23;2.37;;;7.00;99.90;;;;;;493897;239;27666;-73
2024/02/19 07:20:06;;;;;;;7.90;2.97;;;7.00;99.90;;;;;;493959;241;27619;-74
2024/02/19 07:22:08;;;;;;;8.33;3.27;;;7.00;99.90;;;;;;493957;241;28679;-73
2024/02/19 07:24:09;;;;;;;8.13;2.73;;;7.00;99.90;;;;;;493970;241;28283;-73
2024/02/19 07:26:10;;;;;;;6.77;2.63;;;7.00;99.90;;;;;;493954;239;29328;-73
2024/02/19 07:28:11;;;;;;;10.93;2.92;;;7.00;99.90;;;;;;493925;241;28526;-73
2024/02/19 07:30:13;;;;;;;5.70;2.60;;;7.00;99.90;;;;;;493974;241;27637;-74
2024/02/19 07:32:14;;;;;;;8.77;2.80;;;7.10;99.90;;;;;;494038;237;27991;-76
2024/02/19 07:34:15;;;;;;;4.30;2.60;;;7.10;99.90;;;;;;494003;241;27944;-73
2024/02/19 07:36:16;;;;;;;5.77;2.40;;;7.10;99.90;;;;;;493930;241;27897;-74
2024/02/19 07:38:18;;;;;;;10.83;3.00;;;7.10;99.90;;;;;;493972;241;28806;-73
2024/02/19 07:40:20;;;;;;;6.03;2.40;;;7.10;99.90;;;;;;493984;241;28411;-73
2024/02/19 07:42:20;;;;;;;5.40;2.50;;;7.10;99.90;;;;;;493984;241;27982;-73
2024/02/19 07:44:21;;;;;;;6.47;2.70;;;7.20;99.90;;;;;;493880;241;28353;-73
2024/02/19 07:46:23;;;;;;;12.57;3.17;;;7.20;99.90;;;;;;493960;241;28583;-74
2024/02/19 07:48:24;;;;;;;5.13;3.40;;;7.20;99.90;;;;;;493955;241;28257;-73
2024/02/19 07:50:25;;;;;;;6.73;3.00;;;7.20;99.90;;;;;;494028;241;28429;-74
2024/02/19 07:52:26;;;;;;;7.70;2.90;;;7.20;99.90;;;;;;494011;241;28479;-75
2024/02/19 07:54:28;;;;;;;6.97;2.70;;;7.30;99.90;;;;;;494004;241;28603;-73
2024/02/19 07:56:29;;;;;;;9.47;2.50;;;7.40;99.90;;;;;;493889;241;28180;-74
2024/02/19 07:58:30;;;;;;;8.27;2.93;;;7.40;99.90;;;;;;493952;241;28077;-73
2024/02/19 08:00:31;;;;;;;4.33;2.33;;;7.40;99.90;;;;;;494018;241;27951;-73
2024/02/19 08:02:33;;;;;;;7.00;2.80;;;7.40;99.90;;;;;;494010;241;28014;-74
2024/02/19 08:04:34;;;;;;;6.90;2.93;;;7.50;99.90;;;;;;493959;241;27914;-73
2024/02/19 08:06:35;;;;;;;5.77;2.70;;;7.50;99.90;;;;;;493841;241;27999;-74
2024/02/19 08:08:36;;;;;;;5.73;2.50;;;7.40;99.90;;;;;;493933;241;28329;-73
2024/02/19 08:10:38;;;;;;;3.67;2.60;;;7.50;99.90;;;;;;493978;241;27954;-73
2024/02/19 08:12:39;;;;;;;6.90;2.70;;;7.50;99.90;;;;;;493924;241;28043;-74
2024/02/19 08:14:40;;;;;;;7.83;2.73;;;7.50;99.90;;;;;;493992;241;28069;-73
2024/02/19 08:16:41;;;;;;;4.43;2.17;;;7.60;99.90;;;;;;493894;241;28045;-74
2024/02/19 08:18:43;;;;;;;6.67;3.00;;;7.60;99.90;;;;;;494031;241;28006;-75
2024/02/19 08:20:44;;;;;;;5.20;2.97;;;7.60;99.90;;;;;;494003;241;27954;-74
2024/02/19 08:22:45;;;;;;;9.63;2.73;;;7.70;99.90;;;;;;493963;241;28019;-73
2024/02/19 08:24:46;;;;;;;5.90;2.00;;;7.70;99.90;;;;;;493923;241;27832;-73
2024/02/19 08:26:48;;;;;;;6.73;2.50;;;7.70;99.90;;;;;;493979;241;28054;-74
2024/02/19 08:28:49;;;;;;;6.67;2.33;;;7.80;99.90;;;;;;494027;241;28046;-73
2024/02/19 08:30:50;;;;;;;11.20;2.70;;;7.80;99.90;;;;;;493976;241;27813;-74
2024/02/19 08:32:51;;;;;;;5.33;2.47;;;7.90;99.90;;;;;;493915;241;28614;-73
2024/02/19 08:34:53;;;;;;;5.80;2.30;;;7.90;99.90;;;;;;493997;241;28439;-74
2024/02/19 08:36:55;;;;;;;8.33;2.40;;;7.80;99.90;;;;;;493906;239;28039;-74
2024/02/19 08:38:55;;;;;;;4.57;1.97;;;7.90;99.90;;;;;;493962;241;28476;-74
2024/02/19 08:40:56;;;;;;;6.27;2.07;;;7.90;99.90;;;;;;493959;241;28379;-73
2024/02/19 08:42:58;;;;;;;4.00;2.47;;;7.90;99.90;;;;;;493928;241;28456;-73
2024/02/19 08:44:59;;;;;;;3.13;2.03;;;7.90;99.90;;;;;;494033;241;27791;-75
2024/02/19 08:47:07;;;;;;;7.40;1.93;;;7.90;99.90;;;;;;493933;241;27949;-74
2024/02/19 08:49:01;;;;;;;7.10;2.37;;;8.00;99.90;;;;;;493725;241;27825;-74
2024/02/19 08:51:03;;;;;;;7.33;2.40;;;8.00;99.90;;;;;;493955;241;27858;-73
2024/02/19 08:53:04;;;;;;;5.83;2.30;;;8.00;99.90;;;;;;493963;241;27978;-74
2024/02/19 08:55:05;;;;;;;4.53;2.20;;;8.00;99.90;;;;;;494003;241;28086;-75
2024/02/19 08:57:06;;;;;;;9.20;2.57;;;8.00;99.90;;;;;;493866;241;27920;-73
2024/02/19 08:59:08;;;;;;;6.33;2.30;;;8.00;99.90;;;;;;494006;241;27904;-74
2024/02/19 09:01:10;;;;;;;4.07;1.80;;;8.00;99.90;;;;;;493990;241;27811;-73
2024/02/19 09:03:10;;;;;;;6.90;2.33;;;8.00;99.90;;;;;;493955;241;28525;-73
2024/02/19 09:05:12;;;;;;;2.30;1.63;;;8.10;99.90;;;;;;494025;241;28469;-74
2024/02/19 09:07:13;;;;;;;5.00;2.00;;;8.10;99.90;;;;;;493904;241;28310;-74
2024/02/19 09:09:14;;;;;;;2.23;1.60;;;8.20;99.90;;;;;;493916;239;28113;-73
2024/02/19 09:11:15;;;;;;;3.40;1.80;;;8.30;99.90;;;;;;494030;241;28436;-74
2024/02/19 09:13:16;;;;;;;2.70;1.60;;;8.30;99.90;;;;;;493956;241;27694;-73
2024/02/19 09:15:19;;;;;;;3.33;1.90;;;8.40;99.90;;;;;;493970;239;27850;-75
2024/02/19 09:17:19;;;;;;;4.33;2.00;;;8.50;99.90;;;;;;493792;241;28038;-75
2024/02/19 09:19:20;;;;;;;6.10;1.87;;;8.50;99.90;;;;;;493958;241;28117;-74
2024/02/19 09:21:21;;;;;;;4.57;2.00;;;8.60;99.90;;;;;;494033;241;28113;-76
2024/02/19 09:23:23;;;;;;;6.80;2.07;;;8.60;99.90;;;;;;493981;241;28056;-73
2024/02/19 09:25:25;;;;;;;5.17;2.10;;;8.70;99.90;;;;;;493942;241;28138;-74
2024/02/19 09:27:25;;;;;;;3.70;2.07;;;8.70;99.90;;;;;;493859;241;27925;-73
2024/02/19 09:29:26;;;;;;;3.73;1.70;;;8.70;99.90;;;;;;493763;241;27959;-73
2024/02/19 09:31:28;;;;;;;3.87;1.60;;;8.70;99.90;;;;;;494001;241;27616;-76
2024/02/19 09:33:29;;;;;;;4.50;1.70;;;8.90;99.90;;;;;;493938;241;27696;-73
2024/02/19 09:35:30;;;;;;;2.27;1.70;;;8.90;99.90;;;;;;493877;241;27878;-74
2024/02/19 09:37:31;;;;;;;3.93;1.77;;;8.80;99.90;;;;;;493832;241;27894;-72
2024/02/19 09:39:33;;;;;;;4.57;1.80;;;8.80;99.90;;;;;;493992;241;28230;-73
2024/02/19 09:41:34;;;;;;;2.60;1.60;;;8.80;99.90;;;;;;493986;241;28709;-74
2024/02/19 09:43:35;;;;;;;3.13;1.70;;;8.90;99.90;;;;;;493949;237;28372;-72
2024/02/19 09:45:37;;;;;;;5.80;2.13;;;9.00;99.90;;;;;;493938;241;28653;-74
2024/02/19 09:47:38;;;;;;;13.23;2.10;;;9.10;99.90;;;;;;493966;241;28628;-75
2024/02/19 09:49:39;;;;;;;5.03;2.00;;;9.00;99.90;;;;;;493963;237;28503;-73
2024/02/19 09:51:40;;;;;;;3.40;1.87;;;9.10;99.90;;;;;;493984;241;27653;-74
2024/02/19 09:53:41;;;;;;;1.90;1.73;;;9.20;99.90;;;;;;493951;241;27784;-73
2024/02/19 09:55:43;;;;;;;7.13;1.90;;;9.30;99.90;;;;;;493953;241;27651;-73
2024/02/19 09:57:44;;;;;;;3.23;1.90;;;9.30;99.90;;;;;;493956;237;28068;-74
2024/02/19 09:59:45;;;;;;;6.67;1.80;;;9.30;99.90;;;;;;493992;241;28030;-73
2024/02/19 10:01:46;;;;;;;6.17;1.90;;;9.40;99.90;;;;;;493980;241;28080;-74
2024/02/19 10:03:48;;;;;;;9.53;2.00;;;9.40;99.90;;;;;;493922;241;27926;-73
2024/02/19 10:05:49;;;;;;;3.50;1.60;;;9.50;99.90;;;;;;493967;241;27815;-73
2024/02/19 10:07:53;;;;;;;4.53;1.70;;;9.50;99.90;;;;;;493917;241;28068;-74
2024/02/19 10:09:51;;;;;;;4.20;1.73;;;9.60;99.90;;;;;;493892;241;27628;-73
2024/02/19 10:11:53;;;;;;;2.63;1.73;;;9.60;99.90;;;;;;493943;241;28058;-73
2024/02/19 10:13:54;;;;;;;5.63;1.80;;;9.70;99.90;;;;;;493949;241;29606;-73
2024/02/19 10:15:55;;;;;;;5.20;1.60;;;9.80;99.90;;;;;;493990;241;28430;-73
2024/02/19 10:17:56;;;;;;;2.30;1.50;;;9.70;99.90;;;;;;493892;241;28579;-74
2024/02/19 10:19:58;;;;;;;5.60;1.87;;;9.60;99.90;;;;;;493962;241;28374;-73
2024/02/19 10:21:59;;;;;;;1.47;1.37;;;9.40;99.90;;;;;;493940;241;28543;-74
2024/02/19 10:24:00;;;;;;;5.53;1.57;;;9.30;99.90;;;;;;493997;237;27891;-75
2024/02/19 10:26:02;;;;;;;4.50;1.40;;;9.20;99.90;;;;;;493961;241;28011;-74
2024/02/19 10:28:03;;;;;;;6.30;2.27;;;9.10;99.90;;;;;;493900;241;28315;-74
2024/02/19 10:30:07;;;;;;;2.40;1.50;;;9.10;99.90;;;;;;493958;241;28101;-73
2024/02/19 10:32:05;;;;;;;3.30;1.60;;;9.10;99.90;;;;;;493840;241;27956;-73
2024/02/19 10:34:08;;;;;;;6.33;2.10;;;9.20;99.90;;;;;;493988;241;27957;-76
2024/02/19 10:36:08;;;;;;;5.13;1.77;;;9.30;99.90;;;;;;493887;241;28044;-73